sensor_id;sensor_type;location;lat;lon;timestamp;pressure;altitude;pressure_sealevel;temperature;humidity
73633;BME280;61927;50.080;14.418;2023-08-20T00:00:10;99733.91;;;23.36;64.83
73633;BME280;61927;50.080;14.418;2023-08-20T00:03:19;99732.56;;;23.32;65.19
73633;BME280;61927;50.080;14.418;2023-08-20T00:05:45;99739.50;;;23.27;64.71
73633;BME280;61927;50.080;14.418;2023-08-20T00:08:10;99732.56;;;23.24;65.02
73633;BME280;61927;50.080;14.418;2023-08-20T00:10:36;99735.09;;;23.26;65.06
73633;BME280;61927;50.080;14.418;2023-08-20T00:13:02;99729.34;;;23.29;64.60
73633;BME280;61927;50.080;14.418;2023-08-20T00:15:29;99730.19;;;23.29;64.14
73633;BME280;61927;50.080;14.418;2023-08-20T00:17:55;99732.91;;;23.29;64.58
73633;BME280;61927;50.080;14.418;2023-08-20T00:20:21;99728.50;;;23.28;63.96
73633;BME280;61927;50.080;14.418;2023-08-20T00:22:48;99727.13;;;23.24;63.87
73633;BME280;61927;50.080;14.418;2023-08-20T00:25:15;99731.03;;;23.22;63.92
73633;BME280;61927;50.080;14.418;2023-08-20T00:27:41;99728.84;;;23.17;63.73
73633;BME280;61927;50.080;14.418;2023-08-20T00:30:08;99730.19;;;23.13;64.45
73633;BME280;61927;50.080;14.418;2023-08-20T00:32:35;99726.78;;;23.11;64.29
73633;BME280;61927;50.080;14.418;2023-08-20T00:35:00;99723.56;;;23.07;65.22
73633;BME280;61927;50.080;14.418;2023-08-20T00:37:28;99725.59;;;23.05;65.33
73633;BME280;61927;50.080;14.418;2023-08-20T00:39:54;99728.31;;;23.05;64.48
73633;BME280;61927;50.080;14.418;2023-08-20T00:42:19;99733.22;;;23.02;65.38
73633;BME280;61927;50.080;14.418;2023-08-20T00:44:45;99731.34;;;23.02;64.28
73633;BME280;61927;50.080;14.418;2023-08-20T00:47:12;99732.53;;;23.00;63.60
73633;BME280;61927;50.080;14.418;2023-08-20T00:49:40;99734.72;;;22.96;64.29
73633;BME280;61927;50.080;14.418;2023-08-20T00:52:08;99741.31;;;22.94;64.19
73633;BME280;61927;50.080;14.418;2023-08-20T00:54:35;99740.13;;;22.88;64.25
73633;BME280;61927;50.080;14.418;2023-08-20T00:57:01;99745.03;;;22.84;64.35
73633;BME280;61927;50.080;14.418;2023-08-20T00:59:29;99749.09;;;22.80;64.90
73633;BME280;61927;50.080;14.418;2023-08-20T01:01:55;99751.06;;;22.78;64.41
73633;BME280;61927;50.080;14.418;2023-08-20T01:04:20;99752.94;;;22.78;64.52
73633;BME280;61927;50.080;14.418;2023-08-20T01:06:53;99746.00;;;22.75;65.07
73633;BME280;61927;50.080;14.418;2023-08-20T01:09:38;99751.56;;;22.74;64.87
73633;BME280;61927;50.080;14.418;2023-08-20T01:12:10;99756.13;;;22.73;65.42
73633;BME280;61927;50.080;14.418;2023-08-20T01:14:35;99759.69;;;22.74;65.27
73633;BME280;61927;50.080;14.418;2023-08-20T01:17:01;99750.88;;;22.72;65.75
73633;BME280;61927;50.080;14.418;2023-08-20T01:19:27;99745.47;;;22.72;65.77
73633;BME280;61927;50.080;14.418;2023-08-20T01:24:46;99751.56;;;22.74;66.38
73633;BME280;61927;50.080;14.418;2023-08-20T01:27:39;99750.56;;;22.75;66.34
73633;BME280;61927;50.080;14.418;2023-08-20T01:30:09;99748.19;;;22.72;66.76
73633;BME280;61927;50.080;14.418;2023-08-20T01:32:36;99748.50;;;22.69;66.62
73633;BME280;61927;50.080;14.418;2023-08-20T01:35:02;99748.50;;;22.61;67.63
73633;BME280;61927;50.080;14.418;2023-08-20T01:37:28;99749.34;;;22.61;67.35
73633;BME280;61927;50.080;14.418;2023-08-20T01:39:54;99750.69;;;22.57;67.50
73633;BME280;61927;50.080;14.418;2023-08-20T01:42:20;99748.78;;;22.49;68.25
73633;BME280;61927;50.080;14.418;2023-08-20T01:44:45;99745.72;;;22.44;68.81
73633;BME280;61927;50.080;14.418;2023-08-20T01:47:11;99755.03;;;22.42;68.94
73633;BME280;61927;50.080;14.418;2023-08-20T01:49:36;99758.84;;;22.31;69.50
73633;BME280;61927;50.080;14.418;2023-08-20T01:52:02;99752.59;;;22.31;69.88
73633;BME280;61927;50.080;14.418;2023-08-20T01:54:29;99751.44;;;22.33;69.42
73633;BME280;61927;50.080;14.418;2023-08-20T01:56:55;99766.97;;;22.31;69.71
73633;BME280;61927;50.080;14.418;2023-08-20T01:59:22;99765.13;;;22.32;69.45
73633;BME280;61927;50.080;14.418;2023-08-20T02:01:48;99767.13;;;22.30;69.54
73633;BME280;61927;50.080;14.418;2023-08-20T02:04:14;99762.91;;;22.27;69.11
73633;BME280;61927;50.080;14.418;2023-08-20T02:06:39;99764.06;;;22.24;69.53
73633;BME280;61927;50.080;14.418;2023-08-20T02:09:05;99774.34;;;22.21;69.43
73633;BME280;61927;50.080;14.418;2023-08-20T02:11:31;99766.25;;;22.21;69.72
73633;BME280;61927;50.080;14.418;2023-08-20T02:14:03;99771.81;;;22.19;69.64
73633;BME280;61927;50.080;14.418;2023-08-20T02:16:29;99773.16;;;22.15;70.00
73633;BME280;61927;50.080;14.418;2023-08-20T02:18:54;99776.84;;;22.14;69.69
73633;BME280;61927;50.080;14.418;2023-08-20T02:21:20;99768.75;;;22.14;70.00
73633;BME280;61927;50.080;14.418;2023-08-20T02:23:45;99772.63;;;22.12;69.96
73633;BME280;61927;50.080;14.418;2023-08-20T02:26:11;99772.63;;;22.12;69.96
73633;BME280;61927;50.080;14.418;2023-08-20T02:28:36;99770.59;;;22.14;69.68
73633;BME280;61927;50.080;14.418;2023-08-20T02:31:05;99775.69;;;22.17;69.91
73633;BME280;61927;50.080;14.418;2023-08-20T02:33:31;99776.00;;;22.14;69.83
73633;BME280;61927;50.080;14.418;2023-08-20T02:36:01;99767.38;;;22.10;69.96
73633;BME280;61927;50.080;14.418;2023-08-20T02:38:28;99766.38;;;22.11;69.88
73633;BME280;61927;50.080;14.418;2023-08-20T02:40:54;99772.47;;;22.13;70.13
73633;BME280;61927;50.080;14.418;2023-08-20T02:43:19;99767.75;;;22.15;69.36
73633;BME280;61927;50.080;14.418;2023-08-20T02:45:45;99764.34;;;22.13;70.22
73633;BME280;61927;50.080;14.418;2023-08-20T02:48:12;99763.50;;;22.13;69.90
73633;BME280;61927;50.080;14.418;2023-08-20T02:50:38;99759.25;;;22.10;69.77
73633;BME280;61927;50.080;14.418;2023-08-20T02:53:03;99762.81;;;22.11;69.95
73633;BME280;61927;50.080;14.418;2023-08-20T02:55:30;99766.38;;;22.11;69.95
73633;BME280;61927;50.080;14.418;2023-08-20T02:57:56;99761.97;;;22.10;70.51
73633;BME280;61927;50.080;14.418;2023-08-20T03:00:22;99770.25;;;22.09;70.23
73633;BME280;61927;50.080;14.418;2023-08-20T03:02:47;99767.53;;;22.09;70.35
73633;BME280;61927;50.080;14.418;2023-08-20T03:05:13;99768.03;;;22.04;70.45
73633;BME280;61927;50.080;14.418;2023-08-20T03:07:39;99767.34;;;22.02;70.61
73633;BME280;61927;50.080;14.418;2023-08-20T03:10:06;99776.72;;;21.98;70.99
73633;BME280;61927;50.080;14.418;2023-08-20T03:12:31;99767.63;;;21.99;70.97
73633;BME280;61927;50.080;14.418;2023-08-20T03:14:58;99768.94;;;21.95;70.96
73633;BME280;61927;50.080;14.418;2023-08-20T03:17:24;99770.63;;;21.96;71.12
73633;BME280;61927;50.080;14.418;2023-08-20T03:19:57;99770.63;;;21.96;71.07
73633;BME280;61927;50.080;14.418;2023-08-20T03:22:23;99768.78;;;21.97;71.17
73633;BME280;61927;50.080;14.418;2023-08-20T03:24:49;99769.47;;;21.99;70.73
73633;BME280;61927;50.080;14.418;2023-08-20T03:27:16;99775.03;;;21.97;71.32
73633;BME280;61927;50.080;14.418;2023-08-20T03:29:42;99779.59;;;21.97;70.86
73633;BME280;61927;50.080;14.418;2023-08-20T03:32:07;99779.91;;;21.93;71.28
73633;BME280;61927;50.080;14.418;2023-08-20T03:34:33;99781.59;;;21.95;71.46
73633;BME280;61927;50.080;14.418;2023-08-20T03:36:59;99779.91;;;21.93;71.32
73633;BME280;61927;50.080;14.418;2023-08-20T03:39:24;99776.03;;;21.96;71.25
73633;BME280;61927;50.080;14.418;2023-08-20T03:41:51;99775.34;;;21.94;70.77
73633;BME280;61927;50.080;14.418;2023-08-20T03:44:17;99775.53;;;21.92;71.02
73633;BME280;61927;50.080;14.418;2023-08-20T03:46:42;99771.97;;;21.92;71.11
73633;BME280;61927;50.080;14.418;2023-08-20T03:49:08;99770.44;;;21.89;71.03
73633;BME280;61927;50.080;14.418;2023-08-20T03:51:34;99776.84;;;21.88;71.21
73633;BME280;61927;50.080;14.418;2023-08-20T03:53:59;99777.69;;;21.89;71.27
73633;BME280;61927;50.080;14.418;2023-08-20T03:56:25;99766.19;;;21.87;71.22
73633;BME280;61927;50.080;14.418;2023-08-20T03:58:50;99778.84;;;21.86;70.92
73633;BME280;61927;50.080;14.418;2023-08-20T04:01:16;99773.44;;;21.86;71.05
73633;BME280;61927;50.080;14.418;2023-08-20T04:03:41;99773.44;;;21.86;71.31
73633;BME280;61927;50.080;14.418;2023-08-20T04:06:07;99774.13;;;21.88;70.93
73633;BME280;61927;50.080;14.418;2023-08-20T04:08:33;99775.00;;;21.89;71.03
73633;BME280;61927;50.080;14.418;2023-08-20T04:10:58;99780.22;;;21.90;70.90
73633;BME280;61927;50.080;14.418;2023-08-20T04:13:24;99776.53;;;21.91;70.45
73633;BME280;61927;50.080;14.418;2023-08-20T04:15:51;99780.22;;;21.90;70.58
73633;BME280;61927;50.080;14.418;2023-08-20T04:18:17;99785.25;;;21.85;70.87
73633;BME280;61927;50.080;14.418;2023-08-20T04:20:42;99785.44;;;21.84;71.17
73633;BME280;61927;50.080;14.418;2023-08-20T04:23:08;99786.97;;;21.86;71.35
73633;BME280;61927;50.080;14.418;2023-08-20T04:25:34;99796.75;;;21.87;71.34
73633;BME280;61927;50.080;14.418;2023-08-20T04:27:59;99789.34;;;21.89;71.16
73633;BME280;61927;50.080;14.418;2023-08-20T04:30:25;99794.97;;;21.96;70.76
73633;BME280;61927;50.080;14.418;2023-08-20T04:32:51;99798.88;;;22.02;70.48
73633;BME280;61927;50.080;14.418;2023-08-20T04:35:16;99798.03;;;22.01;70.60
73633;BME280;61927;50.080;14.418;2023-08-20T04:37:42;99806.00;;;22.03;70.30
73633;BME280;61927;50.080;14.418;2023-08-20T04:40:08;99803.31;;;22.03;70.24
73633;BME280;61927;50.080;14.418;2023-08-20T04:42:33;99800.59;;;22.03;70.31
73633;BME280;61927;50.080;14.418;2023-08-20T04:44:59;99802.91;;;21.98;70.34
73633;BME280;61927;50.080;14.418;2023-08-20T04:47:25;99797.81;;;21.95;70.51
73633;BME280;61927;50.080;14.418;2023-08-20T04:49:50;99795.97;;;21.95;70.51
73633;BME280;61927;50.080;14.418;2023-08-20T04:52:16;99801.06;;;21.98;70.66
73633;BME280;61927;50.080;14.418;2023-08-20T04:54:41;99799.88;;;22.01;70.31
73633;BME280;61927;50.080;14.418;2023-08-20T04:57:07;99804.00;;;22.05;70.08
73633;BME280;61927;50.080;14.418;2023-08-20T04:59:33;99806.38;;;22.08;69.27
73633;BME280;61927;50.080;14.418;2023-08-20T05:01:58;99809.25;;;22.06;69.81
73633;BME280;61927;50.080;14.418;2023-08-20T05:04:24;99807.72;;;22.04;69.77
73633;BME280;61927;50.080;14.418;2023-08-20T05:06:50;99807.88;;;22.02;69.81
73633;BME280;61927;50.080;14.418;2023-08-20T05:09:15;99812.38;;;22.02;70.29
73633;BME280;61927;50.080;14.418;2023-08-20T05:11:41;99804.91;;;21.96;70.31
73633;BME280;61927;50.080;14.418;2023-08-20T05:14:07;99815.56;;;21.97;70.33
73633;BME280;61927;50.080;14.418;2023-08-20T05:16:33;99822.50;;;22.00;69.73
73633;BME280;61927;50.080;14.418;2023-08-20T05:18:58;99818.81;;;22.01;70.08
73633;BME280;61927;50.080;14.418;2023-08-20T05:21:24;99826.63;;;22.04;70.04
73633;BME280;61927;50.080;14.418;2023-08-20T05:23:49;99823.59;;;22.07;70.09
73633;BME280;61927;50.080;14.418;2023-08-20T05:26:15;99823.28;;;22.10;70.24
73633;BME280;61927;50.080;14.418;2023-08-20T05:28:40;99825.81;;;22.11;69.65
73633;BME280;61927;50.080;14.418;2023-08-20T05:31:06;99829.91;;;22.15;70.03
73633;BME280;61927;50.080;14.418;2023-08-20T05:33:32;99831.97;;;22.21;69.51
73633;BME280;61927;50.080;14.418;2023-08-20T05:35:59;99835.53;;;22.22;69.58
73633;BME280;61927;50.080;14.418;2023-08-20T05:38:25;99841.78;;;22.22;69.36
73633;BME280;61927;50.080;14.418;2023-08-20T05:40:50;99844.63;;;22.21;69.30
73633;BME280;61927;50.080;14.418;2023-08-20T05:43:16;99842.94;;;22.20;69.33
73633;BME280;61927;50.080;14.418;2023-08-20T05:45:42;99852.75;;;22.21;69.61
73633;BME280;61927;50.080;14.418;2023-08-20T05:48:07;99850.03;;;22.21;69.44
73633;BME280;61927;50.080;14.418;2023-08-20T05:50:33;99855.81;;;22.26;69.49
73633;BME280;61927;50.080;14.418;2023-08-20T05:53:00;99856.66;;;22.27;69.73
73633;BME280;61927;50.080;14.418;2023-08-20T05:55:26;99860.06;;;22.29;69.37
73633;BME280;61927;50.080;14.418;2023-08-20T05:57:51;99856.34;;;22.30;69.28
73633;BME280;61927;50.080;14.418;2023-08-20T06:00:17;99854.34;;;22.32;68.75
73633;BME280;61927;50.080;14.418;2023-08-20T06:02:43;99865.00;;;22.33;68.85
73633;BME280;61927;50.080;14.418;2023-08-20T06:05:09;99864.81;;;22.35;68.75
73633;BME280;61927;50.080;14.418;2023-08-20T06:07:35;99861.81;;;22.38;68.74
73633;BME280;61927;50.080;14.418;2023-08-20T06:10:01;99868.22;;;22.37;68.73
73633;BME280;61927;50.080;14.418;2023-08-20T06:12:26;99867.06;;;22.39;69.11
73633;BME280;61927;50.080;14.418;2023-08-20T06:14:52;99871.97;;;22.44;68.44
73633;BME280;61927;50.080;14.418;2023-08-20T06:17:18;99878.72;;;22.40;68.95
73633;BME280;61927;50.080;14.418;2023-08-20T06:19:44;99867.22;;;22.38;68.98
73633;BME280;61927;50.080;14.418;2023-08-20T06:22:10;99873.31;;;22.40;69.35
73633;BME280;61927;50.080;14.418;2023-08-20T06:24:35;99872.31;;;22.41;69.20
73633;BME280;61927;50.080;14.418;2023-08-20T06:27:01;99875.53;;;22.44;68.63
73633;BME280;61927;50.080;14.418;2023-08-20T06:29:27;99873.34;;;22.48;68.70
73633;BME280;61927;50.080;14.418;2023-08-20T06:31:52;99877.13;;;22.55;68.25
73633;BME280;61927;50.080;14.418;2023-08-20T06:34:18;99877.63;;;22.59;68.17
73633;BME280;61927;50.080;14.418;2023-08-20T06:36:43;99876.47;;;22.61;68.28
73633;BME280;61927;50.080;14.418;2023-08-20T06:39:09;99880.53;;;22.65;67.88
73633;BME280;61927;50.080;14.418;2023-08-20T06:41:35;99887.16;;;22.71;67.52
73633;BME280;61927;50.080;14.418;2023-08-20T06:44:02;99893.09;;;22.74;67.53
73633;BME280;61927;50.080;14.418;2023-08-20T06:46:27;99893.78;;;22.76;67.78
73633;BME280;61927;50.080;14.418;2023-08-20T06:48:53;99897.06;;;22.80;67.30
73633;BME280;61927;50.080;14.418;2023-08-20T06:51:20;99893.16;;;22.82;67.17
73633;BME280;61927;50.080;14.418;2023-08-20T06:53:47;99898.59;;;22.82;67.05
73633;BME280;61927;50.080;14.418;2023-08-20T06:56:12;99896.06;;;22.89;67.30
73633;BME280;61927;50.080;14.418;2023-08-20T06:58:40;99901.00;;;22.94;67.00
73633;BME280;61927;50.080;14.418;2023-08-20T07:01:05;99903.06;;;23.00;66.53
73633;BME280;61927;50.080;14.418;2023-08-20T07:05:59;99910.34;;;23.07;66.59
73633;BME280;61927;50.080;14.418;2023-08-20T07:08:25;99912.91;;;23.09;66.20
73633;BME280;61927;50.080;14.418;2023-08-20T07:10:50;99914.59;;;23.10;66.68
73633;BME280;61927;50.080;14.418;2023-08-20T07:13:16;99918.66;;;23.14;66.57
73633;BME280;61927;50.080;14.418;2023-08-20T07:15:41;99924.09;;;23.22;66.27
73633;BME280;61927;50.080;14.418;2023-08-20T07:18:07;99916.84;;;23.31;66.07
73633;BME280;61927;50.080;14.418;2023-08-20T07:20:32;99913.00;;;23.41;65.49
73633;BME280;61927;50.080;14.418;2023-08-20T07:22:58;99910.97;;;23.43;65.33
73633;BME280;61927;50.080;14.418;2023-08-20T07:25:23;99921.50;;;23.55;65.20
73633;BME280;61927;50.080;14.418;2023-08-20T07:27:49;99918.66;;;23.64;64.79
73633;BME280;61927;50.080;14.418;2023-08-20T07:30:16;99912.22;;;23.73;64.87
73633;BME280;61927;50.080;14.418;2023-08-20T07:32:42;99916.81;;;23.81;64.68
73633;BME280;61927;50.080;14.418;2023-08-20T07:35:07;99910.22;;;23.92;64.54
73633;BME280;61927;50.080;14.418;2023-08-20T07:37:33;99910.03;;;24.01;63.92
73633;BME280;61927;50.080;14.418;2023-08-20T07:39:59;99900.53;;;24.13;63.76
73633;BME280;61927;50.080;14.418;2023-08-20T07:42:25;99902.75;;;24.26;62.63
73633;BME280;61927;50.080;14.418;2023-08-20T07:44:50;99915.28;;;24.35;62.25
73633;BME280;61927;50.080;14.418;2023-08-20T07:47:16;99921.22;;;24.39;62.30
73633;BME280;61927;50.080;14.418;2023-08-20T07:49:41;99918.50;;;24.39;62.30
73633;BME280;61927;50.080;14.418;2023-08-20T07:52:07;99909.84;;;24.43;62.16
73633;BME280;61927;50.080;14.418;2023-08-20T07:54:32;99920.34;;;24.46;62.42
73633;BME280;61927;50.080;14.418;2023-08-20T07:56:58;99913.56;;;24.51;61.95
73633;BME280;61927;50.080;14.418;2023-08-20T07:59:23;99907.09;;;24.60;61.48
73633;BME280;61927;50.080;14.418;2023-08-20T08:01:49;99904.88;;;24.63;60.96
73633;BME280;61927;50.080;14.418;2023-08-20T08:04:14;99915.53;;;24.73;60.97
73633;BME280;61927;50.080;14.418;2023-08-20T08:06:40;99902.66;;;24.75;60.65
73633;BME280;61927;50.080;14.418;2023-08-20T08:09:19;99910.44;;;24.78;60.24
73633;BME280;61927;50.080;14.418;2023-08-20T08:11:46;99917.03;;;24.84;60.03
73633;BME280;61927;50.080;14.418;2023-08-20T08:14:12;99916.50;;;24.88;59.99
73633;BME280;61927;50.080;14.418;2023-08-20T08:16:37;99916.47;;;24.96;60.06
73633;BME280;61927;50.080;14.418;2023-08-20T08:19:03;99921.88;;;25.13;59.27
73633;BME280;61927;50.080;14.418;2023-08-20T08:21:28;99923.88;;;25.19;59.18
73633;BME280;61927;50.080;14.418;2023-08-20T08:23:54;99917.06;;;25.23;58.84
73633;BME280;61927;50.080;14.418;2023-08-20T08:26:20;99914.97;;;25.33;58.61
73633;BME280;61927;50.080;14.418;2023-08-20T08:28:46;99925.97;;;25.39;58.53
73633;BME280;61927;50.080;14.418;2023-08-20T08:31:11;99929.19;;;25.43;58.63
73633;BME280;61927;50.080;14.418;2023-08-20T08:33:37;99928.97;;;25.53;58.36
73633;BME280;61927;50.080;14.418;2023-08-20T08:36:03;99932.63;;;25.68;58.32
73633;BME280;61927;50.080;14.418;2023-08-20T08:38:28;99936.13;;;25.77;57.35
73633;BME280;61927;50.080;14.418;2023-08-20T08:40:55;99937.47;;;25.81;58.01
73633;BME280;61927;50.080;14.418;2023-08-20T08:43:21;99936.13;;;25.77;57.99
73633;BME280;61927;50.080;14.418;2023-08-20T08:45:47;99935.84;;;25.63;58.26
73633;BME280;61927;50.080;14.418;2023-08-20T08:48:15;99938.41;;;25.65;58.52
73633;BME280;61927;50.080;14.418;2023-08-20T08:50:43;99935.16;;;25.69;58.29
73633;BME280;61927;50.080;14.418;2023-08-20T08:53:09;99937.81;;;25.78;58.56
73633;BME280;61927;50.080;14.418;2023-08-20T08:55:35;99936.13;;;25.77;58.14
73633;BME280;61927;50.080;14.418;2023-08-20T08:58:02;99941.44;;;25.93;57.49
73633;BME280;61927;50.080;14.418;2023-08-20T09:00:28;99939.16;;;26.04;57.37
73633;BME280;61927;50.080;14.418;2023-08-20T09:02:55;99935.31;;;26.14;56.89
73633;BME280;61927;50.080;14.418;2023-08-20T09:05:21;99943.06;;;26.25;56.93
73633;BME280;61927;50.080;14.418;2023-08-20T09:07:46;99940.59;;;26.38;56.83
73633;BME280;61927;50.080;14.418;2023-08-20T09:10:12;99937.03;;;26.52;56.62
73633;BME280;61927;50.080;14.418;2023-08-20T09:12:37;99942.28;;;26.54;57.04
73633;BME280;61927;50.080;14.418;2023-08-20T09:15:10;99949.06;;;26.58;56.58
73633;BME280;61927;50.080;14.418;2023-08-20T09:17:35;99950.56;;;26.60;56.28
73633;BME280;61927;50.080;14.418;2023-08-20T09:20:01;99947.94;;;26.67;55.91
73633;BME280;61927;50.080;14.418;2023-08-20T09:22:27;99950.75;;;26.59;56.45
73633;BME280;61927;50.080;14.418;2023-08-20T09:24:54;99954.00;;;26.39;57.50
73633;BME280;61927;50.080;14.418;2023-08-20T09:27:21;99957.00;;;26.45;57.96
73633;BME280;61927;50.080;14.418;2023-08-20T09:29:56;99949.97;;;26.35;57.30
73633;BME280;61927;50.080;14.418;2023-08-20T09:32:26;99959.31;;;26.10;56.80
73633;BME280;61927;50.080;14.418;2023-08-20T09:34:54;99960.72;;;26.06;56.37
73633;BME280;61927;50.080;14.418;2023-08-20T09:37:22;99959.22;;;26.03;57.24
73633;BME280;61927;50.080;14.418;2023-08-20T09:39:48;99967.50;;;26.10;57.73
73633;BME280;61927;50.080;14.418;2023-08-20T09:42:14;99967.00;;;26.06;56.78
73633;BME280;61927;50.080;14.418;2023-08-20T09:44:42;99961.88;;;26.12;57.42
73633;BME280;61927;50.080;14.418;2023-08-20T09:49:41;99964.69;;;26.18;57.51
73633;BME280;61927;50.080;14.418;2023-08-20T09:52:09;99958.06;;;26.21;56.64
73633;BME280;61927;50.080;14.418;2023-08-20T09:57:14;99960.28;;;26.17;58.12
73633;BME280;61927;50.080;14.418;2023-08-20T09:59:45;99960.09;;;26.19;58.15
73633;BME280;61927;50.080;14.418;2023-08-20T10:02:13;99958.91;;;26.21;57.95
73633;BME280;61927;50.080;14.418;2023-08-20T10:04:39;99960.22;;;26.25;57.93
73633;BME280;61927;50.080;14.418;2023-08-20T10:07:05;99956.09;;;26.29;58.07
73633;BME280;61927;50.080;14.418;2023-08-20T10:09:32;99958.41;;;26.41;57.64
73633;BME280;61927;50.080;14.418;2023-08-20T10:11:58;99955.63;;;26.49;57.78
73633;BME280;61927;50.080;14.418;2023-08-20T10:14:24;99960.03;;;26.50;57.74
73633;BME280;61927;50.080;14.418;2023-08-20T10:16:49;99957.13;;;26.51;58.02
73633;BME280;61927;50.080;14.418;2023-08-20T10:19:16;99948.78;;;26.53;58.08
73633;BME280;61927;50.080;14.418;2023-08-20T10:21:45;99947.19;;;26.58;57.41
73633;BME280;61927;50.080;14.418;2023-08-20T10:24:16;99946.63;;;26.63;58.02
73633;BME280;61927;50.080;14.418;2023-08-20T10:26:45;99946.06;;;26.67;58.17
73633;BME280;61927;50.080;14.418;2023-08-20T10:29:40;99942.78;;;26.72;57.95
73633;BME280;61927;50.080;14.418;2023-08-20T10:32:11;99939.22;;;26.86;58.09
73633;BME280;61927;50.080;14.418;2023-08-20T10:34:39;99938.47;;;26.92;57.70
73633;BME280;61927;50.080;14.418;2023-08-20T10:37:09;99936.59;;;26.93;56.48
73633;BME280;61927;50.080;14.418;2023-08-20T10:39:38;99943.28;;;27.05;56.78
73633;BME280;61927;50.080;14.418;2023-08-20T10:42:25;99938.88;;;27.04;56.77
73633;BME280;61927;50.080;14.418;2023-08-20T10:45:04;99933.22;;;27.06;56.08
73633;BME280;61927;50.080;14.418;2023-08-20T10:47:47;99942.16;;;27.14;55.64
73633;BME280;61927;50.080;14.418;2023-08-20T10:50:18;99938.19;;;27.17;55.08
73633;BME280;61927;50.080;14.418;2023-08-20T10:52:49;99935.94;;;27.20;54.20
73633;BME280;61927;50.080;14.418;2023-08-20T10:55:15;99934.16;;;27.27;53.95
73633;BME280;61927;50.080;14.418;2023-08-20T10:57:41;99934.25;;;27.55;52.28
73633;BME280;61927;50.080;14.418;2023-08-20T11:00:07;99941.41;;;27.56;51.05
73633;BME280;61927;50.080;14.418;2023-08-20T11:02:38;99930.31;;;27.58;50.36
73633;BME280;61927;50.080;14.418;2023-08-20T11:05:04;99926.25;;;27.69;49.68
73633;BME280;61927;50.080;14.418;2023-08-20T11:07:41;99925.94;;;27.78;49.96
73633;BME280;61927;50.080;14.418;2023-08-20T11:10:07;99924.72;;;27.81;48.91
73633;BME280;61927;50.080;14.418;2023-08-20T11:12:33;99921.59;;;27.84;49.19
73633;BME280;61927;50.080;14.418;2023-08-20T11:15:02;99922.31;;;27.92;47.64
73633;BME280;61927;50.080;14.418;2023-08-20T11:17:28;99914.56;;;27.96;48.41
73633;BME280;61927;50.080;14.418;2023-08-20T11:19:54;99911.00;;;27.95;48.40
73633;BME280;61927;50.080;14.418;2023-08-20T11:22:20;99907.03;;;27.98;47.53
73633;BME280;61927;50.080;14.418;2023-08-20T11:24:46;99906.84;;;27.99;47.11
73633;BME280;61927;50.080;14.418;2023-08-20T11:27:11;99906.06;;;28.06;47.75
73633;BME280;61927;50.080;14.418;2023-08-20T11:29:41;99909.38;;;28.01;47.80
73633;BME280;61927;50.080;14.418;2023-08-20T11:32:07;99912.63;;;28.11;47.80
73633;BME280;61927;50.080;14.418;2023-08-20T11:34:35;99907.50;;;28.23;48.15
73633;BME280;61927;50.080;14.418;2023-08-20T11:37:01;99899.34;;;28.29;48.42
73633;BME280;61927;50.080;14.418;2023-08-20T11:39:29;99899.81;;;28.33;47.86
73633;BME280;61927;50.080;14.418;2023-08-20T11:41:54;99896.47;;;28.38;46.87
73633;BME280;61927;50.080;14.418;2023-08-20T11:44:21;99895.25;;;28.40;47.26
73633;BME280;61927;50.080;14.418;2023-08-20T11:46:47;99889.81;;;28.47;48.19
73633;BME280;61927;50.080;14.418;2023-08-20T11:49:13;99888.38;;;28.51;48.00
73633;BME280;61927;50.080;14.418;2023-08-20T11:54:11;99888.38;;;28.51;46.50
73633;BME280;61927;50.080;14.418;2023-08-20T11:59:11;99884.69;;;28.65;46.74
73633;BME280;61927;50.080;14.418;2023-08-20T12:01:37;99887.09;;;28.81;47.08
73633;BME280;61927;50.080;14.418;2023-08-20T12:04:04;99886.75;;;28.91;46.55
73633;BME280;61927;50.080;14.418;2023-08-20T12:06:29;99883.19;;;28.90;45.70
73633;BME280;61927;50.080;14.418;2023-08-20T12:08:57;99883.06;;;29.12;46.19
73633;BME280;61927;50.080;14.418;2023-08-20T12:11:24;99882.63;;;29.08;46.72
73633;BME280;61927;50.080;14.418;2023-08-20T12:13:51;99880.56;;;29.17;45.96
73633;BME280;61927;50.080;14.418;2023-08-20T12:16:18;99883.94;;;29.19;46.31
73633;BME280;61927;50.080;14.418;2023-08-20T12:18:46;99879.91;;;29.15;45.98
73633;BME280;61927;50.080;14.418;2023-08-20T12:21:11;99878.06;;;29.22;45.95
73633;BME280;61927;50.080;14.418;2023-08-20T12:23:37;99877.84;;;29.23;45.48
73633;BME280;61927;50.080;14.418;2023-08-20T12:26:02;99873.84;;;29.26;45.98
73633;BME280;61927;50.080;14.418;2023-08-20T12:28:28;99875.13;;;29.30;46.01
73633;BME280;61927;50.080;14.418;2023-08-20T12:30:54;99868.44;;;29.39;44.68
73633;BME280;61927;50.080;14.418;2023-08-20T12:33:20;99863.22;;;29.44;45.12
73633;BME280;61927;50.080;14.418;2023-08-20T12:35:46;99861.13;;;29.53;45.11
73633;BME280;61927;50.080;14.418;2023-08-20T12:38:12;99856.94;;;29.57;44.94
73633;BME280;61927;50.080;14.418;2023-08-20T12:40:38;99850.22;;;29.66;43.76
73633;BME280;61927;50.080;14.418;2023-08-20T12:43:03;99854.00;;;29.65;44.44
73633;BME280;61927;50.080;14.418;2023-08-20T12:45:29;99843.69;;;29.74;43.78
73633;BME280;61927;50.080;14.418;2023-08-20T12:47:55;99838.22;;;29.74;43.37
73633;BME280;61927;50.080;14.418;2023-08-20T12:50:21;99841.81;;;29.74;43.37
73633;BME280;61927;50.080;14.418;2023-08-20T12:52:47;99834.88;;;29.85;43.24
73633;BME280;61927;50.080;14.418;2023-08-20T12:55:14;99828.38;;;30.06;42.81
73633;BME280;61927;50.080;14.418;2023-08-20T12:57:55;99819.94;;;30.20;42.72
73633;BME280;61927;50.080;14.418;2023-08-20T13:00:21;99823.06;;;30.37;42.34
73633;BME280;61927;50.080;14.418;2023-08-20T13:02:48;99812.94;;;30.44;41.56